Cedar Grove, NC

10:16 AM EDT on October 31, 2014 (GMT -0400)
Burlington-Alamance Regional | Change Station
CLOSE
Current Station
Airport
Location: Burlington,
Elevation: 617 ft
Nearby Weather Stations

Elev 617 ft 36.05 °N, 79.47 °W | Updated 22 minutes ago

Clear
Clear
48 °F
Feels Like 48 °F
N
5
Wind Variable Wind from NNE

Today
High -- | Low -- °F
--% Chance of Precip.
Yesterday
High -- | Low -- °F
Precip. -- in
7:38 AM 6:21 PM
First Quarter, 55% visible
Pressure 29.97 in
Visibility 10.0 miles
Clouds Mostly Cloudy 3100 ft
Dew Point 36 °F
Humidity 63%
Rainfall 0.00 in
Snow Depth Not available.
UV 1 out of 12
Pollen .10 out of 12
Air Quality Not available.
Flu Activity Not available.
METAR KBUY 311354Z AUTO 03004KT 10SM BKN031 09/02 A2997 RMK AO2 SLP149 T00890022

More Conditions Fewer Conditions

Pressure 29.97 in
Visibility 10.0 miles
Clouds Mostly Cloudy 3100 ft
Dew Point 36 °F
Humidity 63%
Rainfall 0.00 in
Snow Depth Not available.
UV 1 out of 12
Pollen .10 out of 12
Air Quality Not available.
Flu Activity Not available.
METAR KBUY 311354Z AUTO 03004KT 10SM BKN031 09/02 A2997 RMK AO2 SLP149 T00890022

More Conditions Fewer Conditions

10-Day Weather Forecast

Almanac

Astronomy

Oct. 31, 2014 Rise Set
Actual Time
Civil Twilight
Nautical Twilight
Astronomical Twilight
Moon
Length of Visible Light
Length of Day
Tomorrow will be .
, % of the Moon is Illuminated

Today's Extremes

State Highs State Lows

Community

WunderPhotos

Upload Photos

1,766,617 photos uploaded!

WunderBlogs® & News

Nearby

Air Quality

  Air Quality AQ Index Pollutant
Not available.

Snow Depth

Station Depth Elevation

Earthquake Activity

City Distance Mag. Time & Date
Minimum magnitude displayed is 2.5.

Coastal Water Temperatures

Place Temperature

Nearby Weather Stations